createdAt,value
2023-01-29T00:00:12.696Z,99992.27
2023-01-29T00:03:00.754Z,99994.85
2023-01-29T00:05:29.408Z,99990.89
2023-01-29T00:07:57.763Z,99982.11
2023-01-29T00:10:26.404Z,99977.18
2023-01-29T00:12:55.356Z,99981.23
2023-01-29T00:15:23.438Z,99980.39
2023-01-29T00:17:51.560Z,99973.81
2023-01-29T00:20:20.184Z,99966.76
2023-01-29T00:22:48.247Z,99964.83
2023-01-29T00:25:16.464Z,99955.30
2023-01-29T00:27:45.397Z,99963.29
2023-01-29T00:30:13.886Z,99959.77
2023-01-29T00:32:42.508Z,99960.66
2023-01-29T00:35:11.840Z,99959.25
2023-01-29T00:37:39.848Z,99951.60
2023-01-29T00:40:10.171Z,99951.18
2023-01-29T00:42:57.303Z,99962.95
2023-01-29T00:45:25.354Z,99959.89
2023-01-29T00:47:53.800Z,99955.38
2023-01-29T00:50:22.787Z,99951.16
2023-01-29T00:52:53.094Z,99942.30
2023-01-29T00:55:21.497Z,99937.95
2023-01-29T00:57:50.024Z,99945.62
2023-01-29T01:00:19.323Z,99940.27
2023-01-29T01:03:06.106Z,99934.14
2023-01-29T01:05:34.919Z,99936.52
2023-01-29T01:08:03.377Z,99938.15
2023-01-29T01:10:33.879Z,99933.96
2023-01-29T01:13:05.426Z,99927.52
2023-01-29T01:15:38.891Z,99931.97
2023-01-29T01:18:07.615Z,99928.46
2023-01-29T01:20:36.825Z,99927.54
2023-01-29T01:23:05.048Z,99926.38
2023-01-29T01:25:33.185Z,99921.89
2023-01-29T01:28:02.175Z,99925.87
2023-01-29T01:30:30.580Z,99923.67
2023-01-29T01:32:59.987Z,99910.63
2023-01-29T01:35:28.352Z,99910.76
2023-01-29T01:37:56.648Z,99911.49
2023-01-29T01:40:26.724Z,99910.63
2023-01-29T01:42:57.906Z,99903.23
2023-01-29T01:45:32.308Z,99899.92
2023-01-29T01:48:23.937Z,99897.23
2023-01-29T01:50:56.897Z,99898.39
2023-01-29T01:53:41.925Z,99900.45
2023-01-29T01:56:14.385Z,99900.56
2023-01-29T01:58:50.575Z,99904.02
2023-01-29T02:06:20.230Z,99885.49
2023-01-29T02:09:38.937Z,99890.50
2023-01-29T02:12:11.472Z,99896.17
2023-01-29T02:14:41.871Z,99891.98
2023-01-29T02:17:14.131Z,99892.39
2023-01-29T02:19:51.316Z,99896.31
2023-01-29T02:22:47.470Z,99893.27
2023-01-29T02:25:32.485Z,99888.73
2023-01-29T02:28:04.297Z,99887.39
2023-01-29T02:30:50.772Z,99885.89
2023-01-29T02:33:26.811Z,99896.02
2023-01-29T02:36:10.101Z,99899.14
2023-01-29T02:38:47.061Z,99901.02
2023-01-29T02:41:41.505Z,99899.95
2023-01-29T02:44:46.737Z,99904.20
2023-01-29T02:47:21.884Z,99901.91
2023-01-29T02:50:09.665Z,99899.94
2023-01-29T02:52:49.759Z,99900.08
2023-01-29T02:55:36.942Z,99902.81
2023-01-29T02:58:30.941Z,99903.67
2023-01-29T03:01:13.573Z,99902.86
2023-01-29T03:03:48.000Z,99907.84
2023-01-29T03:06:28.707Z,99903.95
2023-01-29T03:09:04.813Z,99900.98
2023-01-29T03:11:39.910Z,99896.67
2023-01-29T03:14:17.111Z,99885.23
2023-01-29T03:16:50.371Z,99877.41
2023-01-29T03:19:21.830Z,99873.73
2023-01-29T03:22:04.510Z,99872.17
2023-01-29T03:24:51.785Z,99872.50
2023-01-29T03:27:50.648Z,99873.92
2023-01-29T03:30:39.101Z,99863.77
2023-01-29T03:33:32.821Z,99856.70
2023-01-29T03:36:13.800Z,99851.17
2023-01-29T03:38:42.922Z,99848.70
2023-01-29T03:41:33.569Z,99850.77
2023-01-29T03:44:15.633Z,99856.88
2023-01-29T03:46:56.823Z,99852.23
2023-01-29T03:49:39.419Z,99854.60
2023-01-29T03:52:19.512Z,99856.44
2023-01-29T03:55:02.386Z,99856.10
2023-01-29T03:57:40.690Z,99860.71
2023-01-29T04:00:21.614Z,99858.30
2023-01-29T04:02:56.904Z,99846.01
2023-01-29T04:05:31.689Z,99840.02
2023-01-29T04:08:17.062Z,99840.65
2023-01-29T04:10:48.282Z,99840.99
2023-01-29T04:13:18.416Z,99842.36
2023-01-29T04:16:08.634Z,99837.13
2023-01-29T04:18:55.969Z,99841.78
2023-01-29T04:21:32.043Z,99841.61
2023-01-29T04:24:00.491Z,99844.20
2023-01-29T04:26:49.331Z,99841.20
2023-01-29T04:29:28.412Z,99836.30
2023-01-29T04:32:13.687Z,99833.80
2023-01-29T04:34:52.030Z,99835.88
2023-01-29T04:37:43.336Z,99830.85
2023-01-29T04:40:27.671Z,99829.04
2023-01-29T04:43:09.911Z,99834.19
2023-01-29T04:45:50.222Z,99833.20
2023-01-29T04:48:34.007Z,99829.81
2023-01-29T04:51:39.469Z,99824.27
2023-01-29T04:54:20.842Z,99812.92
2023-01-29T04:57:16.962Z,99813.23
2023-01-29T04:59:55.152Z,99819.45
2023-01-29T05:02:25.031Z,99820.38
2023-01-29T05:04:55.055Z,99816.88
2023-01-29T05:07:25.017Z,99816.95
2023-01-29T05:09:53.602Z,99811.39
2023-01-29T05:12:25.958Z,99812.45
2023-01-29T05:14:58.301Z,99815.33
2023-01-29T05:17:26.852Z,99817.28
2023-01-29T05:19:56.763Z,99817.65
2023-01-29T05:22:25.805Z,99813.21
2023-01-29T05:24:53.909Z,99811.74
2023-01-29T05:27:48.544Z,99813.45
2023-01-29T05:30:17.208Z,99807.61
2023-01-29T05:32:45.861Z,99814.02
2023-01-29T05:35:14.014Z,99813.73
2023-01-29T05:37:42.130Z,99813.27
2023-01-29T05:40:10.948Z,99813.03
2023-01-29T05:42:38.999Z,99810.41
2023-01-29T05:45:08.191Z,99809.80
2023-01-29T05:47:36.665Z,99809.59
2023-01-29T05:50:05.981Z,99809.17
2023-01-29T05:52:34.162Z,99806.63
2023-01-29T05:55:02.508Z,99802.60
2023-01-29T05:57:30.602Z,99801.23
2023-01-29T05:59:58.829Z,99796.39
2023-01-29T06:02:30.395Z,99796.73
2023-01-29T06:04:58.457Z,99795.66
2023-01-29T06:07:26.773Z,99801.58
2023-01-29T06:09:55.018Z,99800.70
2023-01-29T06:12:23.140Z,99793.75
2023-01-29T06:14:51.420Z,99798.49
2023-01-29T06:17:19.774Z,99805.64
2023-01-29T06:19:47.791Z,99811.20
2023-01-29T06:22:16.095Z,99811.36
2023-01-29T06:24:45.741Z,99809.02
2023-01-29T06:27:13.781Z,99813.15
2023-01-29T06:29:42.094Z,99814.42
2023-01-29T06:32:10.562Z,99816.85
2023-01-29T06:34:38.659Z,99811.29
2023-01-29T06:37:08.029Z,99807.50
2023-01-29T06:39:36.282Z,99801.93
2023-01-29T06:42:04.332Z,99801.91
2023-01-29T06:44:32.459Z,99803.80
2023-01-29T06:47:00.859Z,99804.61
2023-01-29T06:49:28.939Z,99812.06
2023-01-29T06:51:57.837Z,99814.33
2023-01-29T06:54:26.338Z,99818.66
2023-01-29T06:56:54.425Z,99822.48
2023-01-29T06:59:23.436Z,99817.49
2023-01-29T07:01:51.697Z,99817.20
2023-01-29T07:04:19.689Z,99821.65
2023-01-29T07:06:47.962Z,99822.45
2023-01-29T07:09:16.266Z,99822.53
2023-01-29T07:11:44.612Z,99824.64
2023-01-29T07:14:12.778Z,99827.31
2023-01-29T07:16:41.387Z,99828.14
2023-01-29T07:19:09.454Z,99829.55
2023-01-29T07:21:38.063Z,99831.41
2023-01-29T07:24:06.775Z,99832.64
2023-01-29T07:26:34.822Z,99837.98
2023-01-29T07:29:05.129Z,99835.29
2023-01-29T07:31:33.565Z,99835.84
2023-01-29T07:34:01.718Z,99837.52
2023-01-29T07:36:30.133Z,99837.61
2023-01-29T07:38:58.539Z,99834.53
2023-01-29T07:41:26.638Z,99841.90
2023-01-29T07:43:54.956Z,99851.30
2023-01-29T07:46:23.335Z,99856.10
2023-01-29T07:48:51.349Z,99854.86
2023-01-29T07:51:21.564Z,99853.98
2023-01-29T07:53:50.188Z,99853.23
2023-01-29T07:56:18.215Z,99845.89
2023-01-29T07:58:46.472Z,99850.41
2023-01-29T08:01:14.967Z,99842.52
2023-01-29T08:03:43.129Z,99835.77
2023-01-29T08:06:11.321Z,99830.70
2023-01-29T08:08:39.631Z,99826.17
2023-01-29T08:11:07.767Z,99822.15
2023-01-29T08:13:36.257Z,99822.77
2023-01-29T08:16:05.369Z,99824.02
2023-01-29T08:18:33.492Z,99818.45
2023-01-29T08:21:02.635Z,99813.61
2023-01-29T08:23:31.123Z,99806.74
2023-01-29T08:25:59.395Z,99809.26
2023-01-29T08:28:28.138Z,99806.05
2023-01-29T08:30:59.450Z,99808.50
2023-01-29T08:33:38.731Z,99807.42
2023-01-29T08:36:08.789Z,99805.92
2023-01-29T08:38:37.055Z,99803.91
2023-01-29T08:41:05.854Z,99802.61
2023-01-29T08:43:37.196Z,99800.16
2023-01-29T08:46:06.812Z,99795.77
2023-01-29T08:48:35.379Z,99792.51
2023-01-29T08:51:04.745Z,99791.00
2023-01-29T08:53:33.493Z,99789.80
2023-01-29T08:56:01.689Z,99791.56
2023-01-29T08:58:29.798Z,99795.47
2023-01-29T09:01:06.905Z,99793.50
2023-01-29T09:03:35.689Z,99795.09
2023-01-29T09:06:04.042Z,99794.91
2023-01-29T09:08:32.218Z,99792.45
2023-01-29T09:11:00.761Z,99791.59
2023-01-29T09:13:28.961Z,99792.68
2023-01-29T09:16:00.429Z,99790.42
2023-01-29T09:18:29.802Z,99779.36
2023-01-29T09:20:58.382Z,99776.70
2023-01-29T09:23:26.511Z,99775.98
2023-01-29T09:25:55.034Z,99783.27
2023-01-29T09:28:23.338Z,99780.98
2023-01-29T09:30:51.723Z,99772.59
2023-01-29T09:33:20.158Z,99773.42
2023-01-29T09:35:48.247Z,99774.73
2023-01-29T09:38:16.384Z,99773.00
2023-01-29T09:40:55.129Z,99764.05
2023-01-29T09:43:41.262Z,99760.73
2023-01-29T09:46:38.618Z,99757.46
2023-01-29T09:49:31.963Z,99756.44
2023-01-29T09:52:10.979Z,99753.81
2023-01-29T09:54:58.011Z,99754.23
2023-01-29T09:57:34.856Z,99746.80
2023-01-29T10:00:03.168Z,99738.13
2023-01-29T10:02:46.423Z,99725.31
2023-01-29T10:06:05.246Z,99720.67
2023-01-29T10:09:07.937Z,99706.35
2023-01-29T10:11:57.709Z,99695.95
2023-01-29T10:14:56.993Z,99699.67
2023-01-29T10:17:51.221Z,99692.73
2023-01-29T10:20:28.570Z,99681.23
2023-01-29T10:23:02.133Z,99680.63
2023-01-29T10:25:33.999Z,99677.27
2023-01-29T10:28:02.230Z,99676.81
2023-01-29T10:30:45.860Z,99673.39
2023-01-29T10:33:22.098Z,99674.88
2023-01-29T10:35:56.719Z,99670.08
2023-01-29T10:38:34.230Z,99668.95
2023-01-29T10:41:05.619Z,99674.20
2023-01-29T10:43:40.701Z,99677.15
2023-01-29T10:46:17.789Z,99678.92
2023-01-29T10:49:30.883Z,99679.70
2023-01-29T10:52:05.561Z,99683.66
2023-01-29T10:55:18.838Z,99681.10
2023-01-29T10:57:53.544Z,99674.96
2023-01-29T11:00:26.541Z,99674.67
2023-01-29T11:02:55.076Z,99674.16
2023-01-29T11:05:29.862Z,99665.29
2023-01-29T11:08:09.361Z,99664.43
2023-01-29T11:10:45.153Z,99660.30
2023-01-29T11:13:15.755Z,99657.41
2023-01-29T11:15:44.102Z,99648.23
2023-01-29T11:18:15.588Z,99643.76
2023-01-29T11:20:46.134Z,99647.58
2023-01-29T11:23:30.353Z,99648.00
2023-01-29T11:26:00.158Z,99640.23
2023-01-29T11:28:48.942Z,99634.35
2023-01-29T11:31:27.080Z,99631.59
2023-01-29T11:34:06.454Z,99629.10
2023-01-29T11:36:39.006Z,99623.83
2023-01-29T11:39:22.183Z,99621.91
2023-01-29T11:41:59.763Z,99616.55
2023-01-29T11:44:30.852Z,99609.81
2023-01-29T11:47:18.482Z,99607.20
2023-01-29T11:49:49.988Z,99607.98
2023-01-29T11:52:22.187Z,99604.33
2023-01-29T11:54:55.587Z,99600.42
2023-01-29T11:57:46.910Z,99597.48
2023-01-29T12:00:27.572Z,99591.57
2023-01-29T12:03:24.796Z,99590.41
2023-01-29T12:06:24.806Z,99586.10
2023-01-29T12:09:00.141Z,99580.11
2023-01-29T12:11:33.819Z,99577.58
2023-01-29T12:14:05.405Z,99573.02
2023-01-29T12:16:54.027Z,99572.77
2023-01-29T12:19:50.954Z,99575.39
2023-01-29T12:22:40.123Z,99577.27
2023-01-29T12:25:18.731Z,99566.91
2023-01-29T12:27:56.417Z,99566.39
2023-01-29T12:30:36.518Z,99559.79
2023-01-29T12:33:19.208Z,99553.84
2023-01-29T12:36:15.918Z,99553.33
2023-01-29T12:38:45.533Z,99546.11
2023-01-29T12:41:35.170Z,99539.33
2023-01-29T12:44:14.494Z,99533.92
2023-01-29T12:46:50.732Z,99528.50
2023-01-29T12:49:25.456Z,99529.70
2023-01-29T12:52:19.157Z,99528.00
2023-01-29T12:54:53.841Z,99524.15
2023-01-29T12:57:21.954Z,99519.79
2023-01-29T12:59:58.696Z,99512.86
2023-01-29T13:02:36.717Z,99514.10
2023-01-29T13:05:20.372Z,99509.91
2023-01-29T13:07:56.916Z,99506.53
2023-01-29T13:10:30.946Z,99505.56
2023-01-29T13:13:05.488Z,99505.80
2023-01-29T13:15:38.461Z,99503.38
2023-01-29T13:18:29.956Z,99502.05
2023-01-29T13:21:00.217Z,99503.31
2023-01-29T13:23:39.796Z,99502.73
2023-01-29T13:26:08.247Z,99498.89
2023-01-29T13:28:36.667Z,99497.99
2023-01-29T13:31:26.573Z,99490.48
2023-01-29T13:34:15.375Z,99481.13
2023-01-29T13:37:11.052Z,99475.60
2023-01-29T13:39:48.914Z,99468.45
2023-01-29T13:42:21.252Z,99461.03
2023-01-29T13:44:51.868Z,99463.56
2023-01-29T13:47:35.563Z,99464.73
2023-01-29T13:50:10.777Z,99469.75
2023-01-29T13:52:44.778Z,99469.08
2023-01-29T13:55:19.369Z,99477.04
2023-01-29T13:57:49.457Z,99472.02
2023-01-29T14:00:20.555Z,99468.64
2023-01-29T14:03:09.045Z,99469.80
2023-01-29T14:05:42.238Z,99468.05
2023-01-29T14:08:13.403Z,99467.81
2023-01-29T14:10:43.348Z,99464.31
2023-01-29T14:13:21.611Z,99467.80
2023-01-29T14:15:58.870Z,99466.05
2023-01-29T14:18:29.882Z,99465.20
2023-01-29T14:21:01.567Z,99465.77
2023-01-29T14:23:53.679Z,99471.48
2023-01-29T14:26:43.909Z,99474.42
2023-01-29T14:29:14.483Z,99481.66
2023-01-29T14:31:54.116Z,99484.39
2023-01-29T14:34:34.053Z,99478.98
2023-01-29T14:37:18.762Z,99474.88
2023-01-29T14:39:52.163Z,99474.90
2023-01-29T14:42:29.663Z,99477.83
2023-01-29T14:45:07.294Z,99478.48
2023-01-29T14:47:35.384Z,99471.17
2023-01-29T14:50:29.575Z,99470.02
2023-01-29T14:53:03.993Z,99472.91
2023-01-29T14:55:45.773Z,99475.48
2023-01-29T14:58:18.373Z,99479.60
2023-01-29T15:00:53.014Z,99474.04
2023-01-29T15:03:35.844Z,99466.84
2023-01-29T15:06:06.672Z,99459.04
2023-01-29T15:08:41.387Z,99455.19
2023-01-29T15:11:33.946Z,99453.09
2023-01-29T15:14:24.161Z,99455.70
2023-01-29T15:17:00.859Z,99457.07
2023-01-29T15:19:45.077Z,99458.39
2023-01-29T15:22:16.482Z,99455.90
2023-01-29T15:24:46.497Z,99453.47
2023-01-29T15:27:20.307Z,99454.79
2023-01-29T15:29:58.681Z,99452.85
2023-01-29T15:32:32.420Z,99458.03
2023-01-29T15:35:05.824Z,99452.58
2023-01-29T15:37:35.950Z,99451.45
2023-01-29T15:40:12.277Z,99456.02
2023-01-29T15:42:48.786Z,99455.98
2023-01-29T15:45:31.322Z,99456.46
2023-01-29T15:48:15.028Z,99455.20
2023-01-29T15:50:44.307Z,99449.55
2023-01-29T15:53:26.840Z,99447.58
2023-01-29T15:55:56.855Z,99448.57
2023-01-29T15:58:30.480Z,99447.31
2023-01-29T16:01:00.640Z,99448.88
2023-01-29T16:03:32.758Z,99449.22
2023-01-29T16:06:01.990Z,99446.13
2023-01-29T16:08:30.378Z,99451.73
2023-01-29T16:11:02.103Z,99448.11
2023-01-29T16:13:36.089Z,99440.49
2023-01-29T16:16:17.065Z,99435.75
2023-01-29T16:18:58.894Z,99430.17
2023-01-29T16:21:38.578Z,99421.88
2023-01-29T16:24:14.017Z,99420.92
2023-01-29T16:26:47.807Z,99419.73
2023-01-29T16:29:19.409Z,99419.60
2023-01-29T16:31:51.283Z,99421.16
2023-01-29T16:34:30.710Z,99420.92
2023-01-29T16:37:02.233Z,99423.94
2023-01-29T16:39:38.026Z,99427.02
2023-01-29T16:42:21.670Z,99428.08
2023-01-29T16:44:51.493Z,99432.02
2023-01-29T16:47:27.837Z,99431.70
2023-01-29T16:49:59.370Z,99429.99
2023-01-29T16:52:27.375Z,99427.80
2023-01-29T16:55:21.102Z,99427.76
2023-01-29T16:57:54.948Z,99421.06
2023-01-29T17:00:30.853Z,99417.98
2023-01-29T17:03:06.797Z,99409.65
2023-01-29T17:05:38.105Z,99409.38
2023-01-29T17:08:07.406Z,99406.13
2023-01-29T17:10:36.262Z,99409.31
2023-01-29T17:13:09.389Z,99402.05
2023-01-29T17:15:47.400Z,99405.10
2023-01-29T17:18:21.197Z,99405.27
2023-01-29T17:20:50.544Z,99403.05
2023-01-29T17:23:19.460Z,99397.43
2023-01-29T17:25:48.907Z,99393.19
2023-01-29T17:28:17.958Z,99392.83
2023-01-29T17:30:56.643Z,99388.52
2023-01-29T17:33:34.833Z,99394.14
2023-01-29T17:36:02.929Z,99390.12
2023-01-29T17:38:31.258Z,99387.47
2023-01-29T17:41:13.619Z,99381.32
2023-01-29T17:43:41.614Z,99376.65
2023-01-29T17:46:17.516Z,99378.79
2023-01-29T17:48:46.571Z,99378.77
2023-01-29T17:51:16.641Z,99375.90
2023-01-29T17:53:46.604Z,99369.86
2023-01-29T17:56:30.570Z,99368.84
2023-01-29T17:58:58.862Z,99370.65
2023-01-29T18:01:26.997Z,99368.81
2023-01-29T18:03:55.201Z,99366.52
2023-01-29T18:06:29.241Z,99358.31
2023-01-29T18:08:58.556Z,99355.08
2023-01-29T18:11:28.179Z,99345.88
2023-01-29T18:13:56.889Z,99341.36
2023-01-29T18:16:25.773Z,99339.70
2023-01-29T18:18:53.970Z,99336.05
2023-01-29T18:21:23.116Z,99337.64
2023-01-29T18:23:51.442Z,99330.58
2023-01-29T18:26:19.624Z,99325.33
2023-01-29T18:28:47.887Z,99324.25
2023-01-29T18:31:16.163Z,99319.19
2023-01-29T18:33:44.337Z,99315.05
2023-01-29T18:36:12.602Z,99315.09
2023-01-29T18:38:41.500Z,99305.64
2023-01-29T18:41:10.836Z,99300.65
2023-01-29T18:43:40.941Z,99295.20
2023-01-29T18:46:09.434Z,99296.64
2023-01-29T18:48:37.688Z,99289.29
2023-01-29T18:51:06.111Z,99290.04
2023-01-29T18:53:34.263Z,99285.85
2023-01-29T18:56:05.685Z,99283.63
2023-01-29T18:58:38.279Z,99282.86
2023-01-29T19:01:10.060Z,99282.17
2023-01-29T19:03:42.046Z,99278.79
2023-01-29T19:06:11.477Z,99282.89
2023-01-29T19:08:41.160Z,99277.23
2023-01-29T19:11:09.881Z,99277.59
2023-01-29T19:13:38.513Z,99272.11
2023-01-29T19:16:09.177Z,99270.98
2023-01-29T19:18:37.358Z,99266.34
2023-01-29T19:21:08.880Z,99266.88
2023-01-29T19:23:37.185Z,99265.60
2023-01-29T19:26:06.181Z,99266.44
2023-01-29T19:28:34.459Z,99269.04
2023-01-29T19:31:03.206Z,99264.52
2023-01-29T19:33:31.415Z,99265.88
2023-01-29T19:36:00.036Z,99262.42
2023-01-29T19:38:28.737Z,99256.04
2023-01-29T19:40:59.862Z,99255.17
2023-01-29T19:43:31.164Z,99256.24
2023-01-29T19:46:00.767Z,99254.15
2023-01-29T19:48:29.579Z,99252.02
2023-01-29T19:51:04.586Z,99254.81
2023-01-29T19:53:32.758Z,99256.08
2023-01-29T19:56:03.588Z,99255.33
2023-01-29T19:58:32.170Z,99257.79
2023-01-29T20:01:03.117Z,99260.13
2023-01-29T20:03:31.608Z,99256.77
2023-01-29T20:06:05.412Z,99253.27
2023-01-29T20:08:35.547Z,99254.08
2023-01-29T20:11:05.613Z,99249.09
2023-01-29T20:13:34.097Z,99242.90
2023-01-29T20:16:04.021Z,99236.95
2023-01-29T20:18:32.460Z,99232.41
2023-01-29T20:21:07.349Z,99233.29
2023-01-29T20:23:38.374Z,99229.14
2023-01-29T20:26:15.097Z,99230.27
2023-01-29T20:28:45.041Z,99227.52
2023-01-29T20:31:13.497Z,99225.05
2023-01-29T20:33:42.406Z,99223.54
2023-01-29T20:36:12.665Z,99221.18
2023-01-29T20:38:41.517Z,99215.45
2023-01-29T20:41:14.437Z,99210.95
2023-01-29T20:43:44.042Z,99202.63
2023-01-29T20:46:12.454Z,99199.21
2023-01-29T20:48:42.297Z,99190.76
2023-01-29T20:51:15.411Z,99186.65
2023-01-29T20:53:46.010Z,99186.02
2023-01-29T20:56:16.943Z,99183.91
2023-01-29T20:58:46.843Z,99183.44
2023-01-29T21:01:17.830Z,99177.60
2023-01-29T21:03:48.844Z,99175.61
2023-01-29T21:06:16.879Z,99174.77
2023-01-29T21:08:44.967Z,99172.50
2023-01-29T21:11:13.363Z,99171.42
2023-01-29T21:13:42.629Z,99166.27
2023-01-29T21:16:11.362Z,99165.86
2023-01-29T21:18:39.961Z,99165.69
2023-01-29T21:21:08.040Z,99162.43
2023-01-29T21:23:36.137Z,99157.69
2023-01-29T21:26:05.781Z,99156.15
2023-01-29T21:28:34.696Z,99148.63
2023-01-29T21:31:07.941Z,99147.13
2023-01-29T21:33:36.617Z,99141.45
2023-01-29T21:36:05.110Z,99146.35
2023-01-29T21:38:33.494Z,99145.58
2023-01-29T21:41:08.847Z,99140.95
2023-01-29T21:43:37.789Z,99141.14
2023-01-29T21:46:14.211Z,99143.75
2023-01-29T21:48:42.562Z,99147.00
2023-01-29T21:51:10.960Z,99139.81
2023-01-29T21:53:39.065Z,99136.48
2023-01-29T21:56:07.896Z,99130.40
2023-01-29T21:58:36.514Z,99119.52
2023-01-29T22:01:18.480Z,99120.64
2023-01-29T22:03:53.388Z,99120.06
2023-01-29T22:06:21.443Z,99118.80
2023-01-29T22:08:50.200Z,99112.99
2023-01-29T22:11:18.987Z,99108.55
2023-01-29T22:13:47.187Z,99113.55
2023-01-29T22:16:15.218Z,99108.49
2023-01-29T22:18:43.461Z,99104.13
2023-01-29T22:21:11.431Z,99100.14
2023-01-29T22:23:39.612Z,99100.11
2023-01-29T22:26:10.034Z,99092.36
2023-01-29T22:28:38.172Z,99090.02
2023-01-29T22:31:06.375Z,99084.40
2023-01-29T22:33:34.988Z,99080.68
2023-01-29T22:36:03.955Z,99078.77
2023-01-29T22:38:32.094Z,99073.20
2023-01-29T22:41:01.237Z,99068.65
2023-01-29T22:43:29.414Z,99059.53
2023-01-29T22:45:57.612Z,99056.04
2023-01-29T22:48:27.056Z,99050.27
2023-01-29T22:51:12.035Z,99040.16
2023-01-29T22:53:40.854Z,99032.31
2023-01-29T22:56:09.380Z,99030.25
2023-01-29T22:58:38.275Z,99025.19
2023-01-29T23:01:07.349Z,99022.42
2023-01-29T23:03:35.826Z,99014.19
2023-01-29T23:06:04.222Z,99008.27
2023-01-29T23:08:33.381Z,99004.09
2023-01-29T23:11:15.547Z,98999.01
2023-01-29T23:13:55.048Z,98993.20
2023-01-29T23:16:27.661Z,98987.95
2023-01-29T23:18:57.160Z,98983.27
2023-01-29T23:21:26.204Z,98968.77
2023-01-29T23:23:58.380Z,98966.75
2023-01-29T23:26:47.091Z,98966.58
2023-01-29T23:29:15.425Z,98959.27
2023-01-29T23:31:44.280Z,98954.99
2023-01-29T23:34:12.465Z,98943.14
2023-01-29T23:36:41.053Z,98942.04
2023-01-29T23:39:09.781Z,98941.00
2023-01-29T23:41:38.039Z,98943.27
2023-01-29T23:44:06.668Z,98940.90
2023-01-29T23:46:35.129Z,98938.16
2023-01-29T23:49:03.533Z,98938.23
2023-01-29T23:51:31.832Z,98931.92
2023-01-29T23:54:00.224Z,98928.43
2023-01-29T23:56:28.501Z,98921.84
2023-01-29T23:58:57.699Z,98916.68
